sensor_id;sensor_type;location;lat;lon;timestamp;temperature;humidity
68248;SHT30;55064;49.636;12.164;2023-07-09T00:00:48;18.52;63.30
68248;SHT30;55064;49.636;12.164;2023-07-09T00:03:14;18.46;63.84
68248;SHT30;55064;49.636;12.164;2023-07-09T00:05:43;18.36;64.09
68248;SHT30;55064;49.636;12.164;2023-07-09T00:08:29;18.22;64.79
68248;SHT30;55064;49.636;12.164;2023-07-09T00:10:57;18.24;64.36
68248;SHT30;55064;49.636;12.164;2023-07-09T00:13:24;18.28;64.56
68248;SHT30;55064;49.636;12.164;2023-07-09T00:15:52;18.35;63.99
68248;SHT30;55064;49.636;12.164;2023-07-09T00:18:17;18.18;64.86
68248;SHT30;55064;49.636;12.164;2023-07-09T00:20:43;18.15;65.10
68248;SHT30;55064;49.636;12.164;2023-07-09T00:23:10;18.04;65.70
68248;SHT30;55064;49.636;12.164;2023-07-09T00:25:39;17.95;65.57
68248;SHT30;55064;49.636;12.164;2023-07-09T00:28:15;17.88;65.66
68248;SHT30;55064;49.636;12.164;2023-07-09T00:30:44;17.84;65.92
68248;SHT30;55064;49.636;12.164;2023-07-09T00:33:17;17.87;65.66
68248;SHT30;55064;49.636;12.164;2023-07-09T00:35:46;18.02;65.34
68248;SHT30;55064;49.636;12.164;2023-07-09T00:38:25;18.06;65.23
68248;SHT30;55064;49.636;12.164;2023-07-09T00:51:56;17.59;67.04
68248;SHT30;55064;49.636;12.164;2023-07-09T00:54:37;17.53;66.78
68248;SHT30;55064;49.636;12.164;2023-07-09T00:57:22;17.60;65.95
68248;SHT30;55064;49.636;12.164;2023-07-09T01:00:02;17.69;65.51
68248;SHT30;55064;49.636;12.164;2023-07-09T01:03:02;17.67;65.68
68248;SHT30;55064;49.636;12.164;2023-07-09T01:08:51;17.50;66.96
68248;SHT30;55064;49.636;12.164;2023-07-09T01:14:41;17.42;67.14
68248;SHT30;55064;49.636;12.164;2023-07-09T01:23:50;17.30;66.70
68248;SHT30;55064;49.636;12.164;2023-07-09T01:29:38;17.23;67.50
68248;SHT30;55064;49.636;12.164;2023-07-09T01:32:04;17.05;68.47
68248;SHT30;55064;49.636;12.164;2023-07-09T01:34:32;16.94;68.79
68248;SHT30;55064;49.636;12.164;2023-07-09T01:36:57;16.92;68.60
68248;SHT30;55064;49.636;12.164;2023-07-09T01:39:26;17.01;68.44
68248;SHT30;55064;49.636;12.164;2023-07-09T01:41:53;17.01;68.55
68248;SHT30;55064;49.636;12.164;2023-07-09T01:44:21;16.87;69.49
68248;SHT30;55064;49.636;12.164;2023-07-09T01:46:47;16.89;68.97
68248;SHT30;55064;49.636;12.164;2023-07-09T01:49:14;16.79;69.33
68248;SHT30;55064;49.636;12.164;2023-07-09T01:51:41;16.74;69.52
68248;SHT30;55064;49.636;12.164;2023-07-09T01:54:11;16.75;69.41
68248;SHT30;55064;49.636;12.164;2023-07-09T01:56:43;16.81;68.85
68248;SHT30;55064;49.636;12.164;2023-07-09T01:59:09;16.82;68.99
68248;SHT30;55064;49.636;12.164;2023-07-09T02:01:36;16.87;68.88
68248;SHT30;55064;49.636;12.164;2023-07-09T02:04:06;16.87;68.64
68248;SHT30;55064;49.636;12.164;2023-07-09T02:06:32;16.82;68.55
68248;SHT30;55064;49.636;12.164;2023-07-09T02:09:00;16.81;68.65
68248;SHT30;55064;49.636;12.164;2023-07-09T02:11:27;16.75;68.72
68248;SHT30;55064;49.636;12.164;2023-07-09T02:13:52;16.70;68.28
68248;SHT30;55064;49.636;12.164;2023-07-09T02:16:18;16.65;68.73
68248;SHT30;55064;49.636;12.164;2023-07-09T02:18:43;16.63;68.69
68248;SHT30;55064;49.636;12.164;2023-07-09T02:21:11;16.57;69.71
68248;SHT30;55064;49.636;12.164;2023-07-09T02:23:42;16.61;69.53
68248;SHT30;55064;49.636;12.164;2023-07-09T02:26:07;16.51;69.88
68248;SHT30;55064;49.636;12.164;2023-07-09T02:28:36;16.49;69.97
68248;SHT30;55064;49.636;12.164;2023-07-09T02:31:02;16.47;70.03
68248;SHT30;55064;49.636;12.164;2023-07-09T02:33:30;16.49;69.84
68248;SHT30;55064;49.636;12.164;2023-07-09T02:35:58;16.40;70.77
68248;SHT30;55064;49.636;12.164;2023-07-09T02:38:23;16.27;70.61
68248;SHT30;55064;49.636;12.164;2023-07-09T02:40:48;16.27;70.79
68248;SHT30;55064;49.636;12.164;2023-07-09T02:43:16;16.24;70.58
68248;SHT30;55064;49.636;12.164;2023-07-09T02:45:43;16.29;70.76
68248;SHT30;55064;49.636;12.164;2023-07-09T02:48:10;16.22;70.85
68248;SHT30;55064;49.636;12.164;2023-07-09T02:50:36;16.13;71.24
68248;SHT30;55064;49.636;12.164;2023-07-09T02:53:02;16.05;71.48
68248;SHT30;55064;49.636;12.164;2023-07-09T02:55:27;15.96;71.87
68248;SHT30;55064;49.636;12.164;2023-07-09T02:57:56;16.02;71.28
68248;SHT30;55064;49.636;12.164;2023-07-09T03:00:23;16.05;71.35
68248;SHT30;55064;49.636;12.164;2023-07-09T03:02:48;16.15;70.94
68248;SHT30;55064;49.636;12.164;2023-07-09T03:05:14;16.12;70.60
68248;SHT30;55064;49.636;12.164;2023-07-09T03:07:39;16.12;69.18
68248;SHT30;55064;49.636;12.164;2023-07-09T03:10:05;16.08;70.35
68248;SHT30;55064;49.636;12.164;2023-07-09T03:12:30;15.86;71.25
68248;SHT30;55064;49.636;12.164;2023-07-09T03:14:56;15.75;71.13
68248;SHT30;55064;49.636;12.164;2023-07-09T03:17:22;15.72;71.55
68248;SHT30;55064;49.636;12.164;2023-07-09T03:19:47;15.69;71.53
68248;SHT30;55064;49.636;12.164;2023-07-09T03:22:14;15.74;71.82
68248;SHT30;55064;49.636;12.164;2023-07-09T03:24:39;15.71;71.30
68248;SHT30;55064;49.636;12.164;2023-07-09T03:27:08;15.77;71.52
68248;SHT30;55064;49.636;12.164;2023-07-09T03:29:35;15.84;71.43
68248;SHT30;55064;49.636;12.164;2023-07-09T03:32:03;15.89;71.19
68248;SHT30;55064;49.636;12.164;2023-07-09T03:34:28;15.81;71.75
68248;SHT30;55064;49.636;12.164;2023-07-09T03:36:54;15.84;70.98
68248;SHT30;55064;49.636;12.164;2023-07-09T03:39:22;15.85;71.24
68248;SHT30;55064;49.636;12.164;2023-07-09T03:41:50;15.85;71.48
68248;SHT30;55064;49.636;12.164;2023-07-09T03:44:15;15.91;71.42
68248;SHT30;55064;49.636;12.164;2023-07-09T03:46:42;15.82;72.33
68248;SHT30;55064;49.636;12.164;2023-07-09T03:49:08;15.84;72.10
68248;SHT30;55064;49.636;12.164;2023-07-09T03:51:34;15.84;72.44
68248;SHT30;55064;49.636;12.164;2023-07-09T03:54:02;15.81;72.62
68248;SHT30;55064;49.636;12.164;2023-07-09T03:56:27;15.78;73.35
68248;SHT30;55064;49.636;12.164;2023-07-09T03:58:53;15.68;73.45
68248;SHT30;55064;49.636;12.164;2023-07-09T04:01:19;15.61;74.17
68248;SHT30;55064;49.636;12.164;2023-07-09T04:03:45;15.65;73.68
68248;SHT30;55064;49.636;12.164;2023-07-09T04:06:11;16.17;71.72
68248;SHT30;55064;49.636;12.164;2023-07-09T04:08:37;17.12;68.76
68248;SHT30;55064;49.636;12.164;2023-07-09T04:11:03;17.78;66.65
68248;SHT30;55064;49.636;12.164;2023-07-09T04:13:30;18.49;64.96
68248;SHT30;55064;49.636;12.164;2023-07-09T04:15:56;19.18;63.28
68248;SHT30;55064;49.636;12.164;2023-07-09T04:18:23;19.46;62.19
68248;SHT30;55064;49.636;12.164;2023-07-09T04:20:50;19.18;62.59
68248;SHT30;55064;49.636;12.164;2023-07-09T04:23:16;18.83;64.37
68248;SHT30;55064;49.636;12.164;2023-07-09T04:25:44;18.99;63.65
68248;SHT30;55064;49.636;12.164;2023-07-09T04:28:09;19.43;61.71
68248;SHT30;55064;49.636;12.164;2023-07-09T04:30:34;20.08;60.76
68248;SHT30;55064;49.636;12.164;2023-07-09T04:33:00;20.63;58.94
68248;SHT30;55064;49.636;12.164;2023-07-09T04:35:28;20.81;58.30
68248;SHT30;55064;49.636;12.164;2023-07-09T04:37:53;20.76;58.29
68248;SHT30;55064;49.636;12.164;2023-07-09T04:40:21;20.49;59.14
68248;SHT30;55064;49.636;12.164;2023-07-09T04:42:47;20.69;58.56
68248;SHT30;55064;49.636;12.164;2023-07-09T04:45:12;21.48;56.74
68248;SHT30;55064;49.636;12.164;2023-07-09T04:47:38;21.28;57.44
68248;SHT30;55064;49.636;12.164;2023-07-09T04:50:06;21.57;56.24
68248;SHT30;55064;49.636;12.164;2023-07-09T04:52:33;21.38;56.93
68248;SHT30;55064;49.636;12.164;2023-07-09T04:55:00;21.60;55.43
68248;SHT30;55064;49.636;12.164;2023-07-09T04:57:27;21.43;56.65
68248;SHT30;55064;49.636;12.164;2023-07-09T04:59:52;21.62;56.04
68248;SHT30;55064;49.636;12.164;2023-07-09T05:02:21;21.34;56.81
68248;SHT30;55064;49.636;12.164;2023-07-09T05:04:49;22.20;54.85
68248;SHT30;55064;49.636;12.164;2023-07-09T05:07:15;22.68;53.01
68248;SHT30;55064;49.636;12.164;2023-07-09T05:09:43;22.90;53.21
68248;SHT30;55064;49.636;12.164;2023-07-09T05:12:09;22.82;52.56
68248;SHT30;55064;49.636;12.164;2023-07-09T05:14:35;22.73;53.16
68248;SHT30;55064;49.636;12.164;2023-07-09T05:17:01;23.17;52.25
68248;SHT30;55064;49.636;12.164;2023-07-09T05:19:27;23.14;52.25
68248;SHT30;55064;49.636;12.164;2023-07-09T05:21:53;23.14;51.96
68248;SHT30;55064;49.636;12.164;2023-07-09T05:24:18;22.93;52.47
68248;SHT30;55064;49.636;12.164;2023-07-09T05:26:43;22.62;53.00
68248;SHT30;55064;49.636;12.164;2023-07-09T05:29:11;22.10;53.90
68248;SHT30;55064;49.636;12.164;2023-07-09T05:31:37;21.82;55.13
68248;SHT30;55064;49.636;12.164;2023-07-09T05:34:05;21.43;56.17
68248;SHT30;55064;49.636;12.164;2023-07-09T05:36:33;21.05;58.11
68248;SHT30;55064;49.636;12.164;2023-07-09T05:38:59;20.52;59.99
68248;SHT30;55064;49.636;12.164;2023-07-09T05:41:24;20.57;60.00
68248;SHT30;55064;49.636;12.164;2023-07-09T05:43:51;20.50;60.38
68248;SHT30;55064;49.636;12.164;2023-07-09T05:46:22;20.05;61.31
68248;SHT30;55064;49.636;12.164;2023-07-09T05:48:48;19.85;61.81
68248;SHT30;55064;49.636;12.164;2023-07-09T05:51:15;19.83;61.81
68248;SHT30;55064;49.636;12.164;2023-07-09T05:53:41;19.75;61.73
68248;SHT30;55064;49.636;12.164;2023-07-09T05:56:07;19.74;61.00
68248;SHT30;55064;49.636;12.164;2023-07-09T05:58:32;19.64;61.92
68248;SHT30;55064;49.636;12.164;2023-07-09T06:00:58;19.57;61.61
68248;SHT30;55064;49.636;12.164;2023-07-09T06:03:25;19.56;61.61
68248;SHT30;55064;49.636;12.164;2023-07-09T06:05:51;19.59;61.74
68248;SHT30;55064;49.636;12.164;2023-07-09T06:08:18;19.49;61.89
68248;SHT30;55064;49.636;12.164;2023-07-09T06:10:55;19.52;62.08
68248;SHT30;55064;49.636;12.164;2023-07-09T06:13:23;19.47;61.61
68248;SHT30;55064;49.636;12.164;2023-07-09T06:15:49;19.54;61.25
68248;SHT30;55064;49.636;12.164;2023-07-09T06:18:17;19.52;61.42
68248;SHT30;55064;49.636;12.164;2023-07-09T06:20:48;19.62;61.69
68248;SHT30;55064;49.636;12.164;2023-07-09T06:23:14;19.77;62.39
68248;SHT30;55064;49.636;12.164;2023-07-09T06:25:42;19.90;61.80
68248;SHT30;55064;49.636;12.164;2023-07-09T06:28:07;19.90;60.76
68248;SHT30;55064;49.636;12.164;2023-07-09T06:30:40;20.02;60.52
68248;SHT30;55064;49.636;12.164;2023-07-09T06:33:05;20.07;60.69
68248;SHT30;55064;49.636;12.164;2023-07-09T06:35:30;20.35;61.10
68248;SHT30;55064;49.636;12.164;2023-07-09T06:37:58;20.60;60.00
68248;SHT30;55064;49.636;12.164;2023-07-09T06:40:24;20.83;60.04
68248;SHT30;55064;49.636;12.164;2023-07-09T06:42:50;20.80;59.49
68248;SHT30;55064;49.636;12.164;2023-07-09T06:45:16;20.81;60.32
68248;SHT30;55064;49.636;12.164;2023-07-09T06:47:42;20.90;59.35
68248;SHT30;55064;49.636;12.164;2023-07-09T06:50:07;21.02;59.67
68248;SHT30;55064;49.636;12.164;2023-07-09T06:52:35;21.15;59.89
68248;SHT30;55064;49.636;12.164;2023-07-09T06:55:02;21.29;60.02
68248;SHT30;55064;49.636;12.164;2023-07-09T06:57:29;21.45;59.79
68248;SHT30;55064;49.636;12.164;2023-07-09T06:59:54;21.62;59.53
68248;SHT30;55064;49.636;12.164;2023-07-09T07:02:20;21.66;59.00
68248;SHT30;55064;49.636;12.164;2023-07-09T07:04:52;21.80;59.20
68248;SHT30;55064;49.636;12.164;2023-07-09T07:07:17;21.98;58.72
68248;SHT30;55064;49.636;12.164;2023-07-09T07:09:47;22.12;57.59
68248;SHT30;55064;49.636;12.164;2023-07-09T07:12:26;22.18;57.64
68248;SHT30;55064;49.636;12.164;2023-07-09T07:14:53;22.35;57.47
68248;SHT30;55064;49.636;12.164;2023-07-09T07:17:18;22.45;57.49
68248;SHT30;55064;49.636;12.164;2023-07-09T07:19:46;22.58;56.63
68248;SHT30;55064;49.636;12.164;2023-07-09T07:22:12;22.66;57.39
68248;SHT30;55064;49.636;12.164;2023-07-09T07:24:38;22.82;57.17
68248;SHT30;55064;49.636;12.164;2023-07-09T07:27:05;22.86;55.88
68248;SHT30;55064;49.636;12.164;2023-07-09T07:29:31;23.11;55.47
68248;SHT30;55064;49.636;12.164;2023-07-09T07:31:56;23.30;54.81
68248;SHT30;55064;49.636;12.164;2023-07-09T07:34:22;23.48;53.99
68248;SHT30;55064;49.636;12.164;2023-07-09T07:36:51;23.65;53.70
68248;SHT30;55064;49.636;12.164;2023-07-09T07:39:16;23.79;52.91
68248;SHT30;55064;49.636;12.164;2023-07-09T07:41:42;24.00;52.54
68248;SHT30;55064;49.636;12.164;2023-07-09T07:44:10;24.16;51.62
68248;SHT30;55064;49.636;12.164;2023-07-09T07:46:36;24.31;51.87
68248;SHT30;55064;49.636;12.164;2023-07-09T07:49:02;24.40;51.68
68248;SHT30;55064;49.636;12.164;2023-07-09T07:51:27;24.58;52.87
68248;SHT30;55064;49.636;12.164;2023-07-09T07:53:53;24.71;52.45
68248;SHT30;55064;49.636;12.164;2023-07-09T07:56:18;24.67;52.12
68248;SHT30;55064;49.636;12.164;2023-07-09T07:58:43;24.90;52.00
68248;SHT30;55064;49.636;12.164;2023-07-09T08:01:09;25.13;52.24
68248;SHT30;55064;49.636;12.164;2023-07-09T08:03:35;25.33;51.83
68248;SHT30;55064;49.636;12.164;2023-07-09T08:06:01;25.50;52.20
68248;SHT30;55064;49.636;12.164;2023-07-09T08:08:26;25.64;50.95
68248;SHT30;55064;49.636;12.164;2023-07-09T08:11:00;25.82;50.96
68248;SHT30;55064;49.636;12.164;2023-07-09T08:13:25;26.03;50.21
68248;SHT30;55064;49.636;12.164;2023-07-09T08:15:51;26.36;49.52
68248;SHT30;55064;49.636;12.164;2023-07-09T08:18:16;26.57;48.59
68248;SHT30;55064;49.636;12.164;2023-07-09T08:20:45;26.78;48.31
68248;SHT30;55064;49.636;12.164;2023-07-09T08:23:10;27.03;47.70
68248;SHT30;55064;49.636;12.164;2023-07-09T08:25:56;27.27;47.37
68248;SHT30;55064;49.636;12.164;2023-07-09T08:28:22;27.58;46.64
68248;SHT30;55064;49.636;12.164;2023-07-09T08:30:51;27.58;46.36
68248;SHT30;55064;49.636;12.164;2023-07-09T08:33:18;27.58;46.00
68248;SHT30;55064;49.636;12.164;2023-07-09T08:35:44;27.88;45.92
68248;SHT30;55064;49.636;12.164;2023-07-09T08:38:16;28.04;45.13
68248;SHT30;55064;49.636;12.164;2023-07-09T08:41:08;28.02;44.85
68248;SHT30;55064;49.636;12.164;2023-07-09T08:46:27;28.65;43.93
68248;SHT30;55064;49.636;12.164;2023-07-09T08:48:59;28.71;44.13
68248;SHT30;55064;49.636;12.164;2023-07-09T08:51:34;29.08;43.16
68248;SHT30;55064;49.636;12.164;2023-07-09T08:54:02;29.14;43.21
68248;SHT30;55064;49.636;12.164;2023-07-09T08:56:32;29.18;43.12
68248;SHT30;55064;49.636;12.164;2023-07-09T08:59:01;29.50;43.38
68248;SHT30;55064;49.636;12.164;2023-07-09T09:01:39;29.69;42.59
68248;SHT30;55064;49.636;12.164;2023-07-09T09:04:23;29.85;42.00
68248;SHT30;55064;49.636;12.164;2023-07-09T09:07:18;29.96;41.65
68248;SHT30;55064;49.636;12.164;2023-07-09T09:09:55;30.05;40.53
68248;SHT30;55064;49.636;12.164;2023-07-09T09:12:26;29.74;40.94
68248;SHT30;55064;49.636;12.164;2023-07-09T09:15:18;29.87;41.04
68248;SHT30;55064;49.636;12.164;2023-07-09T09:17:50;30.33;40.48
68248;SHT30;55064;49.636;12.164;2023-07-09T09:20:20;30.49;40.56
68248;SHT30;55064;49.636;12.164;2023-07-09T09:22:58;30.55;40.68
68248;SHT30;55064;49.636;12.164;2023-07-09T09:25:30;30.32;40.32
68248;SHT30;55064;49.636;12.164;2023-07-09T09:28:02;29.90;41.12
68248;SHT30;55064;49.636;12.164;2023-07-09T09:30:29;30.24;40.81
68248;SHT30;55064;49.636;12.164;2023-07-09T09:33:00;30.90;39.10
68248;SHT30;55064;49.636;12.164;2023-07-09T09:37:58;31.22;39.89
68248;SHT30;55064;49.636;12.164;2023-07-09T09:40:27;31.61;38.89
68248;SHT30;55064;49.636;12.164;2023-07-09T09:42:56;31.65;39.16
68248;SHT30;55064;49.636;12.164;2023-07-09T09:45:31;31.46;38.05
68248;SHT30;55064;49.636;12.164;2023-07-09T09:48:01;31.37;37.71
68248;SHT30;55064;49.636;12.164;2023-07-09T09:50:31;31.61;38.03
68248;SHT30;55064;49.636;12.164;2023-07-09T09:52:57;31.41;37.96
68248;SHT30;55064;49.636;12.164;2023-07-09T09:55:29;31.24;38.15
68248;SHT30;55064;49.636;12.164;2023-07-09T09:57:55;31.75;37.64
68248;SHT30;55064;49.636;12.164;2023-07-09T10:00:24;31.86;37.33
68248;SHT30;55064;49.636;12.164;2023-07-09T10:03:00;32.30;36.35
68248;SHT30;55064;49.636;12.164;2023-07-09T10:08:31;32.51;37.60
68248;SHT30;55064;49.636;12.164;2023-07-09T10:16:47;32.32;36.86
68248;SHT30;55064;49.636;12.164;2023-07-09T10:22:16;33.13;36.22
68248;SHT30;55064;49.636;12.164;2023-07-09T10:24:56;33.20;35.63
68248;SHT30;55064;49.636;12.164;2023-07-09T10:31:00;33.65;33.90
68248;SHT30;55064;49.636;12.164;2023-07-09T10:39:04;33.14;33.73
68248;SHT30;55064;49.636;12.164;2023-07-09T10:41:42;33.27;32.40
68248;SHT30;55064;49.636;12.164;2023-07-09T10:44:19;33.09;33.88
68248;SHT30;55064;49.636;12.164;2023-07-09T10:46:50;33.44;33.19
68248;SHT30;55064;49.636;12.164;2023-07-09T10:49:21;33.58;31.72
68248;SHT30;55064;49.636;12.164;2023-07-09T10:54:39;33.13;31.22
68248;SHT30;55064;49.636;12.164;2023-07-09T10:57:29;33.61;31.66
68248;SHT30;55064;49.636;12.164;2023-07-09T10:59:56;33.40;32.51
68248;SHT30;55064;49.636;12.164;2023-07-09T11:02:33;33.12;31.78
68248;SHT30;55064;49.636;12.164;2023-07-09T11:05:06;33.13;31.74
68248;SHT30;55064;49.636;12.164;2023-07-09T11:10:56;32.86;32.39
68248;SHT30;55064;49.636;12.164;2023-07-09T11:19:02;33.29;32.00
68248;SHT30;55064;49.636;12.164;2023-07-09T11:21:45;33.09;31.50
68248;SHT30;55064;49.636;12.164;2023-07-09T11:27:32;33.55;31.29
68248;SHT30;55064;49.636;12.164;2023-07-09T11:30:17;32.85;31.47
68248;SHT30;55064;49.636;12.164;2023-07-09T11:36:07;33.51;30.75
68248;SHT30;55064;49.636;12.164;2023-07-09T11:38:46;33.75;30.79
68248;SHT30;55064;49.636;12.164;2023-07-09T11:44:23;34.37;30.01
68248;SHT30;55064;49.636;12.164;2023-07-09T11:49:59;34.06;30.91
68248;SHT30;55064;49.636;12.164;2023-07-09T11:52:39;33.88;31.82
68248;SHT30;55064;49.636;12.164;2023-07-09T11:57:56;34.99;30.28
68248;SHT30;55064;49.636;12.164;2023-07-09T12:00:27;34.74;29.37
68248;SHT30;55064;49.636;12.164;2023-07-09T12:02:56;34.78;28.76
68248;SHT30;55064;49.636;12.164;2023-07-09T12:05:30;34.84;29.17
68248;SHT30;55064;49.636;12.164;2023-07-09T12:08:01;33.74;29.70
68248;SHT30;55064;49.636;12.164;2023-07-09T12:10:33;34.64;28.58
68248;SHT30;55064;49.636;12.164;2023-07-09T12:13:01;34.51;28.37
68248;SHT30;55064;49.636;12.164;2023-07-09T12:15:29;34.78;27.91
68248;SHT30;55064;49.636;12.164;2023-07-09T12:18:00;35.29;26.59
68248;SHT30;55064;49.636;12.164;2023-07-09T12:20:31;35.06;28.02
68248;SHT30;55064;49.636;12.164;2023-07-09T12:22:56;34.50;28.20
68248;SHT30;55064;49.636;12.164;2023-07-09T12:25:25;35.21;28.97
68248;SHT30;55064;49.636;12.164;2023-07-09T12:27:51;35.39;28.13
68248;SHT30;55064;49.636;12.164;2023-07-09T12:30:18;35.59;28.12
68248;SHT30;55064;49.636;12.164;2023-07-09T12:32:45;35.40;28.27
68248;SHT30;55064;49.636;12.164;2023-07-09T12:35:14;35.43;28.28
68248;SHT30;55064;49.636;12.164;2023-07-09T12:37:41;35.83;28.00
68248;SHT30;55064;49.636;12.164;2023-07-09T12:40:16;35.70;27.22
68248;SHT30;55064;49.636;12.164;2023-07-09T12:42:43;35.78;28.05
68248;SHT30;55064;49.636;12.164;2023-07-09T12:45:29;35.49;28.08
68248;SHT30;55064;49.636;12.164;2023-07-09T12:47:59;34.91;28.46
68248;SHT30;55064;49.636;12.164;2023-07-09T12:50:35;35.11;28.27
68248;SHT30;55064;49.636;12.164;2023-07-09T12:53:13;35.06;28.15
68248;SHT30;55064;49.636;12.164;2023-07-09T12:55:42;34.44;28.84
68248;SHT30;55064;49.636;12.164;2023-07-09T12:58:19;34.56;29.09
68248;SHT30;55064;49.636;12.164;2023-07-09T13:00:48;34.94;29.07
68248;SHT30;55064;49.636;12.164;2023-07-09T13:03:27;35.46;29.09
68248;SHT30;55064;49.636;12.164;2023-07-09T13:06:02;35.67;28.92
68248;SHT30;55064;49.636;12.164;2023-07-09T13:08:33;35.30;28.55
68248;SHT30;55064;49.636;12.164;2023-07-09T13:11:14;34.90;28.85
68248;SHT30;55064;49.636;12.164;2023-07-09T13:13:40;35.23;28.49
68248;SHT30;55064;49.636;12.164;2023-07-09T13:16:07;35.39;28.19
68248;SHT30;55064;49.636;12.164;2023-07-09T13:18:33;34.63;28.08
68248;SHT30;55064;49.636;12.164;2023-07-09T13:20:59;34.85;27.74
68248;SHT30;55064;49.636;12.164;2023-07-09T13:23:28;34.67;27.76
68248;SHT30;55064;49.636;12.164;2023-07-09T13:25:54;34.67;28.15
68248;SHT30;55064;49.636;12.164;2023-07-09T13:31:00;34.46;28.36
68248;SHT30;55064;49.636;12.164;2023-07-09T13:33:27;34.87;28.14
68248;SHT30;55064;49.636;12.164;2023-07-09T13:35:54;34.71;28.67
68248;SHT30;55064;49.636;12.164;2023-07-09T13:38:21;34.50;29.40
68248;SHT30;55064;49.636;12.164;2023-07-09T13:40:55;34.56;29.24
68248;SHT30;55064;49.636;12.164;2023-07-09T13:43:32;34.99;27.69
68248;SHT30;55064;49.636;12.164;2023-07-09T13:46:00;35.25;28.28
68248;SHT30;55064;49.636;12.164;2023-07-09T13:48:29;35.40;27.87
68248;SHT30;55064;49.636;12.164;2023-07-09T13:50:56;35.08;27.60
68248;SHT30;55064;49.636;12.164;2023-07-09T13:53:24;34.98;27.49
68248;SHT30;55064;49.636;12.164;2023-07-09T13:55:51;35.19;27.28
68248;SHT30;55064;49.636;12.164;2023-07-09T13:58:19;35.30;27.42
68248;SHT30;55064;49.636;12.164;2023-07-09T14:00:47;35.60;27.77
68248;SHT30;55064;49.636;12.164;2023-07-09T14:03:26;36.17;27.29
68248;SHT30;55064;49.636;12.164;2023-07-09T14:05:52;35.86;26.84
68248;SHT30;55064;49.636;12.164;2023-07-09T14:08:18;35.74;27.06
68248;SHT30;55064;49.636;12.164;2023-07-09T14:10:48;36.02;26.41
68248;SHT30;55064;49.636;12.164;2023-07-09T14:13:19;35.93;26.85
68248;SHT30;55064;49.636;12.164;2023-07-09T14:15:46;35.91;27.30
68248;SHT30;55064;49.636;12.164;2023-07-09T14:18:16;35.88;27.14
68248;SHT30;55064;49.636;12.164;2023-07-09T14:20:42;36.14;26.87
68248;SHT30;55064;49.636;12.164;2023-07-09T14:23:11;36.27;26.89
68248;SHT30;55064;49.636;12.164;2023-07-09T14:25:38;36.17;26.84
68248;SHT30;55064;49.636;12.164;2023-07-09T14:28:07;36.20;26.92
68248;SHT30;55064;49.636;12.164;2023-07-09T14:30:34;35.93;27.23
68248;SHT30;55064;49.636;12.164;2023-07-09T14:33:02;35.83;26.95
68248;SHT30;55064;49.636;12.164;2023-07-09T14:35:28;35.84;27.21
68248;SHT30;55064;49.636;12.164;2023-07-09T14:37:54;35.91;27.06
68248;SHT30;55064;49.636;12.164;2023-07-09T14:40:20;35.16;27.07
68248;SHT30;55064;49.636;12.164;2023-07-09T14:42:47;35.83;27.79
68248;SHT30;55064;49.636;12.164;2023-07-09T14:45:23;35.64;27.90
68248;SHT30;55064;49.636;12.164;2023-07-09T14:47:50;34.51;27.94
68248;SHT30;55064;49.636;12.164;2023-07-09T14:50:17;34.15;28.45
68248;SHT30;55064;49.636;12.164;2023-07-09T14:52:45;33.81;28.49
68248;SHT30;55064;49.636;12.164;2023-07-09T14:57:41;33.98;29.36
68248;SHT30;55064;49.636;12.164;2023-07-09T15:00:11;34.29;28.83
68248;SHT30;55064;49.636;12.164;2023-07-09T15:02:40;34.19;28.41
68248;SHT30;55064;49.636;12.164;2023-07-09T15:05:12;34.12;28.46
68248;SHT30;55064;49.636;12.164;2023-07-09T15:07:38;34.39;27.99
68248;SHT30;55064;49.636;12.164;2023-07-09T15:10:05;34.46;28.40
68248;SHT30;55064;49.636;12.164;2023-07-09T15:12:34;34.72;28.07
68248;SHT30;55064;49.636;12.164;2023-07-09T15:15:13;34.87;28.12
68248;SHT30;55064;49.636;12.164;2023-07-09T15:17:42;34.56;28.37
68248;SHT30;55064;49.636;12.164;2023-07-09T15:20:21;34.47;27.94
68248;SHT30;55064;49.636;12.164;2023-07-09T15:22:49;33.92;28.21
68248;SHT30;55064;49.636;12.164;2023-07-09T15:25:19;33.89;28.17
68248;SHT30;55064;49.636;12.164;2023-07-09T15:27:44;34.05;28.35
68248;SHT30;55064;49.636;12.164;2023-07-09T15:30:15;34.44;28.10
68248;SHT30;55064;49.636;12.164;2023-07-09T15:32:44;34.60;27.78
68248;SHT30;55064;49.636;12.164;2023-07-09T15:35:10;34.51;28.27
68248;SHT30;55064;49.636;12.164;2023-07-09T15:37:36;34.12;28.82
68248;SHT30;55064;49.636;12.164;2023-07-09T15:40:31;34.57;28.89
68248;SHT30;55064;49.636;12.164;2023-07-09T15:43:04;34.58;29.31
68248;SHT30;55064;49.636;12.164;2023-07-09T15:45:31;34.33;29.05
68248;SHT30;55064;49.636;12.164;2023-07-09T15:47:58;34.20;29.72
68248;SHT30;55064;49.636;12.164;2023-07-09T15:50:26;34.20;29.16
68248;SHT30;55064;49.636;12.164;2023-07-09T15:52:54;34.12;29.54
68248;SHT30;55064;49.636;12.164;2023-07-09T15:55:23;34.17;29.24
68248;SHT30;55064;49.636;12.164;2023-07-09T15:57:53;34.23;29.12
68248;SHT30;55064;49.636;12.164;2023-07-09T16:00:21;34.39;28.15
68248;SHT30;55064;49.636;12.164;2023-07-09T16:02:55;34.33;28.79
68248;SHT30;55064;49.636;12.164;2023-07-09T16:05:23;34.57;28.87
68248;SHT30;55064;49.636;12.164;2023-07-09T16:07:51;34.68;29.22
68248;SHT30;55064;49.636;12.164;2023-07-09T16:10:20;34.68;28.55
68248;SHT30;55064;49.636;12.164;2023-07-09T16:12:46;34.54;29.21
68248;SHT30;55064;49.636;12.164;2023-07-09T16:15:14;34.57;28.76
68248;SHT30;55064;49.636;12.164;2023-07-09T16:17:45;34.30;29.15
68248;SHT30;55064;49.636;12.164;2023-07-09T16:20:15;34.53;29.40
68248;SHT30;55064;49.636;12.164;2023-07-09T16:22:42;34.75;29.02
68248;SHT30;55064;49.636;12.164;2023-07-09T16:25:30;34.80;28.68
68248;SHT30;55064;49.636;12.164;2023-07-09T16:27:59;34.83;28.82
68248;SHT30;55064;49.636;12.164;2023-07-09T16:30:26;34.83;27.80
68248;SHT30;55064;49.636;12.164;2023-07-09T16:32:54;34.44;28.02
68248;SHT30;55064;49.636;12.164;2023-07-09T16:35:23;34.67;28.81
68248;SHT30;55064;49.636;12.164;2023-07-09T16:37:50;34.81;28.45
68248;SHT30;55064;49.636;12.164;2023-07-09T16:40:22;34.58;29.16
68248;SHT30;55064;49.636;12.164;2023-07-09T16:42:51;34.49;29.77
68248;SHT30;55064;49.636;12.164;2023-07-09T16:45:20;34.17;29.51
68248;SHT30;55064;49.636;12.164;2023-07-09T16:47:48;34.23;29.76
68248;SHT30;55064;49.636;12.164;2023-07-09T16:50:41;34.29;30.56
68248;SHT30;55064;49.636;12.164;2023-07-09T16:53:25;34.29;30.58